sensor_id;sensor_type;location;lat;lon;timestamp;P1;durP1;ratioP1;P2;durP2;ratioP2
74528;SDS011;63009;52.584;5.932;2023-06-26T00:00:46;13.57;;;8.37;;
74528;SDS011;63009;52.584;5.932;2023-06-26T00:03:12;11.88;;;7.90;;
74528;SDS011;63009;52.584;5.932;2023-06-26T00:05:39;13.77;;;7.88;;
74528;SDS011;63009;52.584;5.932;2023-06-26T00:08:05;13.05;;;9.07;;
74528;SDS011;63009;52.584;5.932;2023-06-26T00:10:31;12.68;;;8.10;;
74528;SDS011;63009;52.584;5.932;2023-06-26T00:12:56;11.87;;;7.77;;
74528;SDS011;63009;52.584;5.932;2023-06-26T00:15:21;13.90;;;8.40;;
74528;SDS011;63009;52.584;5.932;2023-06-26T00:17:47;14.82;;;8.63;;
74528;SDS011;63009;52.584;5.932;2023-06-26T00:20:12;12.27;;;7.90;;
74528;SDS011;63009;52.584;5.932;2023-06-26T00:22:41;12.88;;;8.65;;
74528;SDS011;63009;52.584;5.932;2023-06-26T00:25:07;11.23;;;7.00;;
74528;SDS011;63009;52.584;5.932;2023-06-26T00:27:32;11.93;;;8.02;;
74528;SDS011;63009;52.584;5.932;2023-06-26T00:29:57;12.27;;;8.90;;
74528;SDS011;63009;52.584;5.932;2023-06-26T00:32:23;12.70;;;8.30;;
74528;SDS011;63009;52.584;5.932;2023-06-26T00:34:48;11.50;;;7.90;;
74528;SDS011;63009;52.584;5.932;2023-06-26T00:37:13;12.87;;;8.10;;
74528;SDS011;63009;52.584;5.932;2023-06-26T00:39:38;12.50;;;8.07;;
74528;SDS011;63009;52.584;5.932;2023-06-26T00:42:04;11.70;;;8.17;;
74528;SDS011;63009;52.584;5.932;2023-06-26T00:44:29;11.23;;;7.82;;
74528;SDS011;63009;52.584;5.932;2023-06-26T00:46:54;12.70;;;8.47;;
74528;SDS011;63009;52.584;5.932;2023-06-26T00:49:20;15.70;;;8.57;;
74528;SDS011;63009;52.584;5.932;2023-06-26T00:51:45;12.93;;;8.27;;
74528;SDS011;63009;52.584;5.932;2023-06-26T00:54:11;13.10;;;8.50;;
74528;SDS011;63009;52.584;5.932;2023-06-26T00:56:37;13.60;;;8.80;;
74528;SDS011;63009;52.584;5.932;2023-06-26T00:59:02;14.50;;;9.40;;
74528;SDS011;63009;52.584;5.932;2023-06-26T01:01:28;12.17;;;8.43;;
74528;SDS011;63009;52.584;5.932;2023-06-26T01:03:53;14.25;;;9.05;;
74528;SDS011;63009;52.584;5.932;2023-06-26T01:06:20;13.15;;;8.52;;
74528;SDS011;63009;52.584;5.932;2023-06-26T01:08:47;13.95;;;9.48;;
74528;SDS011;63009;52.584;5.932;2023-06-26T01:11:13;13.13;;;9.30;;
74528;SDS011;63009;52.584;5.932;2023-06-26T01:13:39;14.95;;;9.95;;
74528;SDS011;63009;52.584;5.932;2023-06-26T01:18:33;12.77;;;9.25;;
74528;SDS011;63009;52.584;5.932;2023-06-26T01:23:31;12.27;;;8.40;;
74528;SDS011;63009;52.584;5.932;2023-06-26T01:28:38;11.82;;;8.55;;
74528;SDS011;63009;52.584;5.932;2023-06-26T01:31:05;15.02;;;8.77;;
74528;SDS011;63009;52.584;5.932;2023-06-26T01:33:32;15.57;;;9.07;;
74528;SDS011;63009;52.584;5.932;2023-06-26T01:35:58;13.02;;;9.00;;
74528;SDS011;63009;52.584;5.932;2023-06-26T01:38:24;13.15;;;8.82;;
74528;SDS011;63009;52.584;5.932;2023-06-26T01:40:51;12.50;;;8.50;;
74528;SDS011;63009;52.584;5.932;2023-06-26T01:45:50;13.13;;;9.23;;
74528;SDS011;63009;52.584;5.932;2023-06-26T01:48:21;16.25;;;10.43;;
74528;SDS011;63009;52.584;5.932;2023-06-26T01:50:51;12.45;;;8.85;;
74528;SDS011;63009;52.584;5.932;2023-06-26T01:55:50;13.25;;;9.35;;
74528;SDS011;63009;52.584;5.932;2023-06-26T01:58:25;14.98;;;10.13;;
74528;SDS011;63009;52.584;5.932;2023-06-26T02:00:52;14.57;;;9.10;;
74528;SDS011;63009;52.584;5.932;2023-06-26T02:03:18;15.20;;;9.85;;
74528;SDS011;63009;52.584;5.932;2023-06-26T02:05:45;13.38;;;9.38;;
74528;SDS011;63009;52.584;5.932;2023-06-26T02:08:10;13.60;;;9.27;;
74528;SDS011;63009;52.584;5.932;2023-06-26T02:10:37;14.45;;;9.43;;
74528;SDS011;63009;52.584;5.932;2023-06-26T02:13:02;13.27;;;9.30;;
74528;SDS011;63009;52.584;5.932;2023-06-26T02:15:27;13.30;;;9.07;;
74528;SDS011;63009;52.584;5.932;2023-06-26T02:17:53;14.10;;;9.77;;
74528;SDS011;63009;52.584;5.932;2023-06-26T02:20:18;14.75;;;9.55;;
74528;SDS011;63009;52.584;5.932;2023-06-26T02:22:43;13.60;;;10.38;;
74528;SDS011;63009;52.584;5.932;2023-06-26T02:25:09;13.67;;;9.90;;
74528;SDS011;63009;52.584;5.932;2023-06-26T02:27:35;15.88;;;10.40;;
74528;SDS011;63009;52.584;5.932;2023-06-26T02:30:00;14.80;;;9.15;;
74528;SDS011;63009;52.584;5.932;2023-06-26T02:32:26;15.73;;;10.37;;
74528;SDS011;63009;52.584;5.932;2023-06-26T02:34:51;15.00;;;9.40;;
74528;SDS011;63009;52.584;5.932;2023-06-26T02:37:16;12.57;;;8.65;;
74528;SDS011;63009;52.584;5.932;2023-06-26T02:39:42;13.45;;;8.68;;
74528;SDS011;63009;52.584;5.932;2023-06-26T02:42:07;13.18;;;8.10;;
74528;SDS011;63009;52.584;5.932;2023-06-26T02:44:33;16.07;;;9.40;;
74528;SDS011;63009;52.584;5.932;2023-06-26T02:46:58;12.65;;;8.35;;
74528;SDS011;63009;52.584;5.932;2023-06-26T02:49:23;13.40;;;8.18;;
74528;SDS011;63009;52.584;5.932;2023-06-26T02:51:49;12.90;;;7.93;;
74528;SDS011;63009;52.584;5.932;2023-06-26T02:54:14;13.50;;;7.75;;
74528;SDS011;63009;52.584;5.932;2023-06-26T02:56:40;12.65;;;7.35;;
74528;SDS011;63009;52.584;5.932;2023-06-26T02:59:05;12.43;;;7.37;;
74528;SDS011;63009;52.584;5.932;2023-06-26T03:01:30;13.40;;;6.80;;
74528;SDS011;63009;52.584;5.932;2023-06-26T03:03:55;12.97;;;7.43;;
74528;SDS011;63009;52.584;5.932;2023-06-26T03:06:21;14.50;;;7.57;;
74528;SDS011;63009;52.584;5.932;2023-06-26T03:08:46;12.87;;;7.33;;
74528;SDS011;63009;52.584;5.932;2023-06-26T03:11:11;12.83;;;6.13;;
74528;SDS011;63009;52.584;5.932;2023-06-26T03:13:37;11.60;;;6.20;;
74528;SDS011;63009;52.584;5.932;2023-06-26T03:16:02;13.75;;;6.43;;
74528;SDS011;63009;52.584;5.932;2023-06-26T03:18:28;13.40;;;6.07;;
74528;SDS011;63009;52.584;5.932;2023-06-26T03:20:54;12.73;;;6.57;;
74528;SDS011;63009;52.584;5.932;2023-06-26T03:23:20;13.88;;;6.03;;
74528;SDS011;63009;52.584;5.932;2023-06-26T03:25:46;12.55;;;5.55;;
74528;SDS011;63009;52.584;5.932;2023-06-26T03:28:11;18.67;;;6.53;;
74528;SDS011;63009;52.584;5.932;2023-06-26T03:30:37;12.30;;;6.05;;
74528;SDS011;63009;52.584;5.932;2023-06-26T03:33:02;12.20;;;5.82;;
74528;SDS011;63009;52.584;5.932;2023-06-26T03:35:27;10.25;;;5.57;;
74528;SDS011;63009;52.584;5.932;2023-06-26T03:37:53;12.07;;;5.23;;
74528;SDS011;63009;52.584;5.932;2023-06-26T03:40:18;11.90;;;5.65;;
74528;SDS011;63009;52.584;5.932;2023-06-26T03:42:43;13.13;;;5.50;;
74528;SDS011;63009;52.584;5.932;2023-06-26T03:45:08;13.00;;;5.10;;
74528;SDS011;63009;52.584;5.932;2023-06-26T03:47:34;13.47;;;6.10;;
74528;SDS011;63009;52.584;5.932;2023-06-26T03:49:59;12.88;;;5.47;;
74528;SDS011;63009;52.584;5.932;2023-06-26T03:52:24;14.75;;;6.32;;
74528;SDS011;63009;52.584;5.932;2023-06-26T03:54:49;14.73;;;5.90;;
74528;SDS011;63009;52.584;5.932;2023-06-26T03:57:15;12.00;;;5.57;;
74528;SDS011;63009;52.584;5.932;2023-06-26T03:59:40;13.07;;;5.83;;
74528;SDS011;63009;52.584;5.932;2023-06-26T04:02:05;17.10;;;5.93;;
74528;SDS011;63009;52.584;5.932;2023-06-26T04:04:30;13.80;;;5.40;;
74528;SDS011;63009;52.584;5.932;2023-06-26T04:06:56;14.00;;;6.27;;
74528;SDS011;63009;52.584;5.932;2023-06-26T04:09:22;12.70;;;5.25;;
74528;SDS011;63009;52.584;5.932;2023-06-26T04:11:47;18.95;;;7.45;;
74528;SDS011;63009;52.584;5.932;2023-06-26T04:14:12;13.47;;;6.47;;
74528;SDS011;63009;52.584;5.932;2023-06-26T04:16:38;13.90;;;5.18;;
74528;SDS011;63009;52.584;5.932;2023-06-26T04:19:03;24.10;;;7.35;;
74528;SDS011;63009;52.584;5.932;2023-06-26T04:21:29;14.02;;;6.78;;
74528;SDS011;63009;52.584;5.932;2023-06-26T04:23:55;14.95;;;6.10;;
74528;SDS011;63009;52.584;5.932;2023-06-26T04:26:20;14.90;;;5.83;;
74528;SDS011;63009;52.584;5.932;2023-06-26T04:28:46;15.97;;;6.30;;
74528;SDS011;63009;52.584;5.932;2023-06-26T04:31:11;13.63;;;5.35;;
74528;SDS011;63009;52.584;5.932;2023-06-26T04:33:36;15.73;;;5.15;;
74528;SDS011;63009;52.584;5.932;2023-06-26T04:36:05;17.58;;;5.65;;
74528;SDS011;63009;52.584;5.932;2023-06-26T04:38:33;15.93;;;5.68;;
74528;SDS011;63009;52.584;5.932;2023-06-26T04:41:00;15.38;;;6.35;;
74528;SDS011;63009;52.584;5.932;2023-06-26T04:43:26;13.65;;;5.38;;
74528;SDS011;63009;52.584;5.932;2023-06-26T04:45:51;12.15;;;5.40;;
74528;SDS011;63009;52.584;5.932;2023-06-26T04:48:16;15.27;;;5.33;;
74528;SDS011;63009;52.584;5.932;2023-06-26T04:50:42;11.30;;;5.35;;
74528;SDS011;63009;52.584;5.932;2023-06-26T04:53:07;13.40;;;4.82;;
74528;SDS011;63009;52.584;5.932;2023-06-26T04:55:32;15.05;;;4.85;;
74528;SDS011;63009;52.584;5.932;2023-06-26T04:57:58;11.50;;;4.70;;
74528;SDS011;63009;52.584;5.932;2023-06-26T05:00:23;13.27;;;4.43;;
74528;SDS011;63009;52.584;5.932;2023-06-26T05:02:50;10.75;;;4.47;;
74528;SDS011;63009;52.584;5.932;2023-06-26T05:05:25;11.98;;;4.72;;
74528;SDS011;63009;52.584;5.932;2023-06-26T05:07:52;12.25;;;4.15;;
74528;SDS011;63009;52.584;5.932;2023-06-26T05:10:17;10.38;;;3.90;;
74528;SDS011;63009;52.584;5.932;2023-06-26T05:12:43;10.53;;;4.53;;
74528;SDS011;63009;52.584;5.932;2023-06-26T05:15:08;10.75;;;4.18;;
74528;SDS011;63009;52.584;5.932;2023-06-26T05:17:34;10.05;;;4.63;;
74528;SDS011;63009;52.584;5.932;2023-06-26T05:19:59;10.07;;;4.20;;
74528;SDS011;63009;52.584;5.932;2023-06-26T05:22:24;11.80;;;3.23;;
74528;SDS011;63009;52.584;5.932;2023-06-26T05:24:51;10.70;;;3.50;;
74528;SDS011;63009;52.584;5.932;2023-06-26T05:27:19;12.30;;;3.33;;
74528;SDS011;63009;52.584;5.932;2023-06-26T05:29:46;9.90;;;2.90;;
74528;SDS011;63009;52.584;5.932;2023-06-26T05:32:13;8.98;;;2.60;;
74528;SDS011;63009;52.584;5.932;2023-06-26T05:34:42;11.23;;;3.17;;
74528;SDS011;63009;52.584;5.932;2023-06-26T05:37:10;9.25;;;2.05;;
74528;SDS011;63009;52.584;5.932;2023-06-26T05:39:43;6.05;;;1.98;;
74528;SDS011;63009;52.584;5.932;2023-06-26T05:42:09;10.20;;;2.55;;
74528;SDS011;63009;52.584;5.932;2023-06-26T05:44:35;7.70;;;1.90;;
74528;SDS011;63009;52.584;5.932;2023-06-26T05:47:00;8.13;;;2.00;;
74528;SDS011;63009;52.584;5.932;2023-06-26T05:49:25;7.35;;;2.08;;
74528;SDS011;63009;52.584;5.932;2023-06-26T05:51:51;7.77;;;1.70;;
74528;SDS011;63009;52.584;5.932;2023-06-26T05:54:16;7.85;;;2.25;;
74528;SDS011;63009;52.584;5.932;2023-06-26T05:56:42;5.45;;;1.70;;
74528;SDS011;63009;52.584;5.932;2023-06-26T05:59:08;5.70;;;1.55;;
74528;SDS011;63009;52.584;5.932;2023-06-26T06:01:34;4.63;;;1.40;;
74528;SDS011;63009;52.584;5.932;2023-06-26T06:04:00;7.85;;;2.00;;
74528;SDS011;63009;52.584;5.932;2023-06-26T06:06:26;7.70;;;1.93;;
74528;SDS011;63009;52.584;5.932;2023-06-26T06:08:51;7.57;;;2.00;;
74528;SDS011;63009;52.584;5.932;2023-06-26T06:11:16;7.07;;;1.90;;
74528;SDS011;63009;52.584;5.932;2023-06-26T06:13:41;10.33;;;3.77;;
74528;SDS011;63009;52.584;5.932;2023-06-26T06:16:07;11.10;;;2.15;;
74528;SDS011;63009;52.584;5.932;2023-06-26T06:18:33;7.53;;;2.10;;
74528;SDS011;63009;52.584;5.932;2023-06-26T06:20:58;8.73;;;2.30;;
74528;SDS011;63009;52.584;5.932;2023-06-26T06:23:23;8.65;;;2.25;;
74528;SDS011;63009;52.584;5.932;2023-06-26T06:25:49;9.43;;;2.20;;
74528;SDS011;63009;52.584;5.932;2023-06-26T06:28:14;6.50;;;1.90;;
74528;SDS011;63009;52.584;5.932;2023-06-26T06:30:41;9.18;;;2.03;;
74528;SDS011;63009;52.584;5.932;2023-06-26T06:33:06;7.27;;;2.07;;
74528;SDS011;63009;52.584;5.932;2023-06-26T06:35:32;8.53;;;2.20;;
74528;SDS011;63009;52.584;5.932;2023-06-26T06:37:57;8.77;;;2.30;;
74528;SDS011;63009;52.584;5.932;2023-06-26T06:40:22;7.40;;;2.17;;
74528;SDS011;63009;52.584;5.932;2023-06-26T06:42:47;6.37;;;1.93;;
74528;SDS011;63009;52.584;5.932;2023-06-26T06:45:13;6.77;;;2.20;;
74528;SDS011;63009;52.584;5.932;2023-06-26T06:47:38;9.37;;;2.60;;
74528;SDS011;63009;52.584;5.932;2023-06-26T06:50:03;8.17;;;2.27;;
74528;SDS011;63009;52.584;5.932;2023-06-26T06:52:42;7.20;;;1.75;;
74528;SDS011;63009;52.584;5.932;2023-06-26T06:55:08;6.47;;;1.98;;
74528;SDS011;63009;52.584;5.932;2023-06-26T06:57:37;6.30;;;2.00;;
74528;SDS011;63009;52.584;5.932;2023-06-26T07:00:05;7.72;;;2.05;;
74528;SDS011;63009;52.584;5.932;2023-06-26T07:02:38;10.02;;;2.90;;
74528;SDS011;63009;52.584;5.932;2023-06-26T07:05:04;7.55;;;2.10;;
74528;SDS011;63009;52.584;5.932;2023-06-26T07:07:30;7.90;;;2.05;;
74528;SDS011;63009;52.584;5.932;2023-06-26T07:10:00;8.90;;;2.00;;
74528;SDS011;63009;52.584;5.932;2023-06-26T07:12:29;9.15;;;2.10;;
74528;SDS011;63009;52.584;5.932;2023-06-26T07:14:55;7.88;;;2.30;;
74528;SDS011;63009;52.584;5.932;2023-06-26T07:17:21;10.10;;;2.40;;
74528;SDS011;63009;52.584;5.932;2023-06-26T07:19:46;7.55;;;2.30;;
74528;SDS011;63009;52.584;5.932;2023-06-26T07:22:12;8.07;;;2.10;;
74528;SDS011;63009;52.584;5.932;2023-06-26T07:24:38;7.95;;;2.25;;
74528;SDS011;63009;52.584;5.932;2023-06-26T07:27:03;7.97;;;2.33;;
74528;SDS011;63009;52.584;5.932;2023-06-26T07:29:29;6.38;;;1.92;;
74528;SDS011;63009;52.584;5.932;2023-06-26T07:31:54;7.80;;;2.30;;
74528;SDS011;63009;52.584;5.932;2023-06-26T07:34:19;8.13;;;2.43;;
74528;SDS011;63009;52.584;5.932;2023-06-26T07:36:44;8.80;;;2.47;;
74528;SDS011;63009;52.584;5.932;2023-06-26T07:39:10;9.23;;;2.17;;
74528;SDS011;63009;52.584;5.932;2023-06-26T07:41:35;7.97;;;2.20;;
74528;SDS011;63009;52.584;5.932;2023-06-26T07:44:00;7.30;;;2.23;;
74528;SDS011;63009;52.584;5.932;2023-06-26T07:46:25;7.23;;;1.90;;
74528;SDS011;63009;52.584;5.932;2023-06-26T07:48:51;6.80;;;2.13;;
74528;SDS011;63009;52.584;5.932;2023-06-26T07:51:16;9.17;;;2.20;;
74528;SDS011;63009;52.584;5.932;2023-06-26T07:53:41;6.87;;;1.90;;
74528;SDS011;63009;52.584;5.932;2023-06-26T07:56:07;6.22;;;1.80;;
74528;SDS011;63009;52.584;5.932;2023-06-26T07:58:32;8.47;;;2.10;;
74528;SDS011;63009;52.584;5.932;2023-06-26T08:00:58;9.63;;;2.50;;
74528;SDS011;63009;52.584;5.932;2023-06-26T08:03:23;8.60;;;2.28;;
74528;SDS011;63009;52.584;5.932;2023-06-26T08:05:49;7.83;;;2.40;;
74528;SDS011;63009;52.584;5.932;2023-06-26T08:08:14;7.20;;;2.00;;
74528;SDS011;63009;52.584;5.932;2023-06-26T08:10:39;6.87;;;1.90;;
74528;SDS011;63009;52.584;5.932;2023-06-26T08:13:05;7.10;;;2.40;;
74528;SDS011;63009;52.584;5.932;2023-06-26T08:15:30;7.90;;;2.43;;
74528;SDS011;63009;52.584;5.932;2023-06-26T08:17:55;7.70;;;2.33;;
74528;SDS011;63009;52.584;5.932;2023-06-26T08:20:21;8.07;;;2.00;;
74528;SDS011;63009;52.584;5.932;2023-06-26T08:22:47;7.63;;;2.22;;
74528;SDS011;63009;52.584;5.932;2023-06-26T08:25:14;8.73;;;2.60;;
74528;SDS011;63009;52.584;5.932;2023-06-26T08:27:39;8.27;;;2.33;;
74528;SDS011;63009;52.584;5.932;2023-06-26T08:30:04;8.27;;;2.57;;
74528;SDS011;63009;52.584;5.932;2023-06-26T08:32:30;10.32;;;2.85;;
74528;SDS011;63009;52.584;5.932;2023-06-26T08:34:55;9.17;;;2.70;;
74528;SDS011;63009;52.584;5.932;2023-06-26T08:37:21;8.40;;;2.50;;
74528;SDS011;63009;52.584;5.932;2023-06-26T08:39:46;9.43;;;3.10;;
74528;SDS011;63009;52.584;5.932;2023-06-26T08:42:12;7.80;;;2.90;;
74528;SDS011;63009;52.584;5.932;2023-06-26T08:44:37;8.77;;;2.70;;
74528;SDS011;63009;52.584;5.932;2023-06-26T08:47:03;9.73;;;2.93;;
74528;SDS011;63009;52.584;5.932;2023-06-26T08:49:29;9.45;;;2.70;;
74528;SDS011;63009;52.584;5.932;2023-06-26T08:52:04;8.15;;;3.03;;
74528;SDS011;63009;52.584;5.932;2023-06-26T08:54:37;9.57;;;3.40;;
74528;SDS011;63009;52.584;5.932;2023-06-26T08:57:07;8.85;;;2.70;;
74528;SDS011;63009;52.584;5.932;2023-06-26T08:59:33;8.52;;;3.10;;
74528;SDS011;63009;52.584;5.932;2023-06-26T09:01:59;8.52;;;2.92;;
74528;SDS011;63009;52.584;5.932;2023-06-26T09:04:25;9.23;;;3.00;;
74528;SDS011;63009;52.584;5.932;2023-06-26T09:06:50;8.23;;;2.72;;
74528;SDS011;63009;52.584;5.932;2023-06-26T09:09:16;9.15;;;2.80;;
74528;SDS011;63009;52.584;5.932;2023-06-26T09:11:41;7.07;;;2.80;;
74528;SDS011;63009;52.584;5.932;2023-06-26T09:14:06;9.82;;;3.10;;
74528;SDS011;63009;52.584;5.932;2023-06-26T09:16:39;9.73;;;3.28;;
74528;SDS011;63009;52.584;5.932;2023-06-26T09:19:08;8.57;;;2.53;;
74528;SDS011;63009;52.584;5.932;2023-06-26T09:21:34;15.23;;;3.72;;
74528;SDS011;63009;52.584;5.932;2023-06-26T09:24:00;10.98;;;3.33;;
74528;SDS011;63009;52.584;5.932;2023-06-26T09:26:25;8.33;;;2.93;;
74528;SDS011;63009;52.584;5.932;2023-06-26T09:28:51;9.43;;;2.78;;
74528;SDS011;63009;52.584;5.932;2023-06-26T09:31:16;11.57;;;3.17;;
74528;SDS011;63009;52.584;5.932;2023-06-26T09:33:42;8.73;;;2.92;;
74528;SDS011;63009;52.584;5.932;2023-06-26T09:36:08;14.40;;;3.10;;
74528;SDS011;63009;52.584;5.932;2023-06-26T09:38:36;9.20;;;2.85;;
74528;SDS011;63009;52.584;5.932;2023-06-26T09:41:02;9.27;;;2.80;;
74528;SDS011;63009;52.584;5.932;2023-06-26T09:43:28;11.48;;;3.03;;
74528;SDS011;63009;52.584;5.932;2023-06-26T09:45:53;8.45;;;2.83;;
74528;SDS011;63009;52.584;5.932;2023-06-26T09:48:19;8.60;;;2.67;;
74528;SDS011;63009;52.584;5.932;2023-06-26T09:50:45;9.40;;;2.90;;
74528;SDS011;63009;52.584;5.932;2023-06-26T09:53:11;9.77;;;2.88;;
74528;SDS011;63009;52.584;5.932;2023-06-26T09:55:40;10.20;;;2.75;;
74528;SDS011;63009;52.584;5.932;2023-06-26T09:58:09;7.72;;;2.58;;
74528;SDS011;63009;52.584;5.932;2023-06-26T10:00:39;9.48;;;2.70;;
74528;SDS011;63009;52.584;5.932;2023-06-26T10:03:05;10.70;;;2.53;;
74528;SDS011;63009;52.584;5.932;2023-06-26T10:05:30;11.73;;;2.90;;
74528;SDS011;63009;52.584;5.932;2023-06-26T10:07:55;8.93;;;2.30;;
74528;SDS011;63009;52.584;5.932;2023-06-26T10:10:22;8.93;;;2.28;;
74528;SDS011;63009;52.584;5.932;2023-06-26T10:12:49;8.25;;;2.33;;
74528;SDS011;63009;52.584;5.932;2023-06-26T10:15:20;10.25;;;2.50;;
74528;SDS011;63009;52.584;5.932;2023-06-26T10:17:48;9.40;;;2.38;;
74528;SDS011;63009;52.584;5.932;2023-06-26T10:20:14;7.82;;;2.28;;
74528;SDS011;63009;52.584;5.932;2023-06-26T10:22:42;9.38;;;2.45;;
74528;SDS011;63009;52.584;5.932;2023-06-26T10:25:10;9.63;;;2.75;;
74528;SDS011;63009;52.584;5.932;2023-06-26T10:27:40;8.50;;;2.65;;
74528;SDS011;63009;52.584;5.932;2023-06-26T10:30:11;8.05;;;2.88;;
74528;SDS011;63009;52.584;5.932;2023-06-26T10:32:46;7.65;;;2.50;;
74528;SDS011;63009;52.584;5.932;2023-06-26T10:35:12;8.20;;;2.50;;
74528;SDS011;63009;52.584;5.932;2023-06-26T10:37:41;16.23;;;2.50;;
74528;SDS011;63009;52.584;5.932;2023-06-26T10:40:17;10.43;;;2.83;;
74528;SDS011;63009;52.584;5.932;2023-06-26T10:42:46;7.63;;;2.03;;
74528;SDS011;63009;52.584;5.932;2023-06-26T10:45:19;8.80;;;2.07;;
74528;SDS011;63009;52.584;5.932;2023-06-26T10:53:07;6.97;;;1.88;;
74528;SDS011;63009;52.584;5.932;2023-06-26T10:55:33;5.70;;;1.58;;
74528;SDS011;63009;52.584;5.932;2023-06-26T10:57:58;6.60;;;1.77;;
74528;SDS011;63009;52.584;5.932;2023-06-26T11:00:24;6.33;;;1.53;;
74528;SDS011;63009;52.584;5.932;2023-06-26T11:02:52;5.50;;;1.40;;
74528;SDS011;63009;52.584;5.932;2023-06-26T11:05:27;4.93;;;1.30;;
74528;SDS011;63009;52.584;5.932;2023-06-26T11:08:10;6.45;;;1.50;;
74528;SDS011;63009;52.584;5.932;2023-06-26T11:10:50;6.57;;;1.88;;
74528;SDS011;63009;52.584;5.932;2023-06-26T11:13:17;7.38;;;1.30;;
74528;SDS011;63009;52.584;5.932;2023-06-26T11:15:44;6.40;;;1.38;;
74528;SDS011;63009;52.584;5.932;2023-06-26T11:18:10;4.22;;;1.17;;
74528;SDS011;63009;52.584;5.932;2023-06-26T11:20:37;6.15;;;2.03;;
74528;SDS011;63009;52.584;5.932;2023-06-26T11:23:02;4.97;;;1.70;;
74528;SDS011;63009;52.584;5.932;2023-06-26T11:25:29;5.10;;;1.30;;
74528;SDS011;63009;52.584;5.932;2023-06-26T11:27:55;5.82;;;1.40;;
74528;SDS011;63009;52.584;5.932;2023-06-26T11:30:23;6.22;;;1.33;;
74528;SDS011;63009;52.584;5.932;2023-06-26T11:32:50;6.00;;;1.40;;
74528;SDS011;63009;52.584;5.932;2023-06-26T11:35:22;5.63;;;1.57;;
74528;SDS011;63009;52.584;5.932;2023-06-26T11:37:58;6.97;;;1.80;;
74528;SDS011;63009;52.584;5.932;2023-06-26T11:40:26;8.05;;;1.65;;
74528;SDS011;63009;52.584;5.932;2023-06-26T11:42:52;8.35;;;1.45;;
74528;SDS011;63009;52.584;5.932;2023-06-26T11:45:19;7.43;;;1.90;;
74528;SDS011;63009;52.584;5.932;2023-06-26T11:47:45;10.38;;;2.00;;
74528;SDS011;63009;52.584;5.932;2023-06-26T11:50:14;7.15;;;1.95;;
74528;SDS011;63009;52.584;5.932;2023-06-26T11:52:44;7.63;;;1.90;;
74528;SDS011;63009;52.584;5.932;2023-06-26T11:55:10;10.13;;;1.80;;
74528;SDS011;63009;52.584;5.932;2023-06-26T11:57:36;7.35;;;1.48;;
74528;SDS011;63009;52.584;5.932;2023-06-26T12:00:11;5.45;;;1.30;;
74528;SDS011;63009;52.584;5.932;2023-06-26T12:02:38;5.88;;;1.70;;
74528;SDS011;63009;52.584;5.932;2023-06-26T12:05:03;8.32;;;1.70;;
74528;SDS011;63009;52.584;5.932;2023-06-26T12:07:29;7.50;;;2.10;;
74528;SDS011;63009;52.584;5.932;2023-06-26T12:09:56;7.65;;;1.40;;
74528;SDS011;63009;52.584;5.932;2023-06-26T12:12:23;6.70;;;1.65;;
74528;SDS011;63009;52.584;5.932;2023-06-26T12:14:51;6.15;;;1.50;;
74528;SDS011;63009;52.584;5.932;2023-06-26T12:17:17;7.80;;;1.30;;
74528;SDS011;63009;52.584;5.932;2023-06-26T12:19:44;8.75;;;1.70;;
74528;SDS011;63009;52.584;5.932;2023-06-26T12:22:14;8.20;;;1.63;;
74528;SDS011;63009;52.584;5.932;2023-06-26T12:24:41;9.30;;;1.30;;
74528;SDS011;63009;52.584;5.932;2023-06-26T12:27:11;8.75;;;1.73;;
74528;SDS011;63009;52.584;5.932;2023-06-26T12:29:39;9.23;;;1.70;;
74528;SDS011;63009;52.584;5.932;2023-06-26T12:32:09;11.80;;;2.60;;
74528;SDS011;63009;52.584;5.932;2023-06-26T12:34:36;7.75;;;2.22;;
74528;SDS011;63009;52.584;5.932;2023-06-26T12:37:04;9.15;;;2.00;;
74528;SDS011;63009;52.584;5.932;2023-06-26T12:42:20;7.63;;;1.92;;
74528;SDS011;63009;52.584;5.932;2023-06-26T12:44:47;8.20;;;1.75;;
74528;SDS011;63009;52.584;5.932;2023-06-26T12:47:14;12.35;;;1.83;;
74528;SDS011;63009;52.584;5.932;2023-06-26T12:49:41;7.25;;;1.25;;
74528;SDS011;63009;52.584;5.932;2023-06-26T12:52:08;7.93;;;1.75;;
74528;SDS011;63009;52.584;5.932;2023-06-26T12:54:34;6.03;;;1.33;;
74528;SDS011;63009;52.584;5.932;2023-06-26T12:57:00;6.72;;;1.40;;
74528;SDS011;63009;52.584;5.932;2023-06-26T12:59:26;5.60;;;1.10;;
74528;SDS011;63009;52.584;5.932;2023-06-26T13:01:51;9.65;;;1.67;;
74528;SDS011;63009;52.584;5.932;2023-06-26T13:04:17;7.18;;;1.42;;
74528;SDS011;63009;52.584;5.932;2023-06-26T13:06:42;7.22;;;1.77;;
74528;SDS011;63009;52.584;5.932;2023-06-26T13:09:08;10.20;;;1.67;;
74528;SDS011;63009;52.584;5.932;2023-06-26T13:11:33;6.25;;;1.30;;
74528;SDS011;63009;52.584;5.932;2023-06-26T13:14:01;7.55;;;1.65;;
74528;SDS011;63009;52.584;5.932;2023-06-26T13:16:27;4.57;;;1.27;;
74528;SDS011;63009;52.584;5.932;2023-06-26T13:18:52;9.57;;;1.77;;
74528;SDS011;63009;52.584;5.932;2023-06-26T13:21:18;9.82;;;1.38;;
74528;SDS011;63009;52.584;5.932;2023-06-26T13:23:43;8.23;;;1.52;;
74528;SDS011;63009;52.584;5.932;2023-06-26T13:26:09;5.40;;;1.10;;
74528;SDS011;63009;52.584;5.932;2023-06-26T13:28:35;7.13;;;1.63;;
74528;SDS011;63009;52.584;5.932;2023-06-26T13:31:01;8.68;;;1.70;;
74528;SDS011;63009;52.584;5.932;2023-06-26T13:33:27;5.65;;;1.30;;
74528;SDS011;63009;52.584;5.932;2023-06-26T13:35:52;5.93;;;1.33;;
74528;SDS011;63009;52.584;5.932;2023-06-26T13:38:21;7.22;;;1.67;;
74528;SDS011;63009;52.584;5.932;2023-06-26T13:40:53;7.18;;;1.77;;
74528;SDS011;63009;52.584;5.932;2023-06-26T13:43:20;8.63;;;1.45;;
74528;SDS011;63009;52.584;5.932;2023-06-26T13:45:46;6.10;;;1.50;;
74528;SDS011;63009;52.584;5.932;2023-06-26T13:48:11;9.90;;;1.50;;
74528;SDS011;63009;52.584;5.932;2023-06-26T13:50:37;7.20;;;1.50;;
74528;SDS011;63009;52.584;5.932;2023-06-26T13:53:02;7.07;;;1.33;;
74528;SDS011;63009;52.584;5.932;2023-06-26T13:55:27;6.17;;;1.60;;
74528;SDS011;63009;52.584;5.932;2023-06-26T13:57:52;6.10;;;1.30;;
74528;SDS011;63009;52.584;5.932;2023-06-26T14:00:18;7.23;;;1.33;;
74528;SDS011;63009;52.584;5.932;2023-06-26T14:02:45;6.43;;;1.23;;
74528;SDS011;63009;52.584;5.932;2023-06-26T14:05:11;7.40;;;1.42;;
74528;SDS011;63009;52.584;5.932;2023-06-26T14:07:36;7.07;;;1.58;;
74528;SDS011;63009;52.584;5.932;2023-06-26T14:10:03;7.40;;;1.35;;
74528;SDS011;63009;52.584;5.932;2023-06-26T14:12:29;5.15;;;1.30;;
74528;SDS011;63009;52.584;5.932;2023-06-26T14:14:54;3.77;;;1.10;;
74528;SDS011;63009;52.584;5.932;2023-06-26T14:17:19;3.97;;;1.03;;
74528;SDS011;63009;52.584;5.932;2023-06-26T14:19:44;5.28;;;1.65;;
74528;SDS011;63009;52.584;5.932;2023-06-26T14:22:12;8.02;;;1.42;;
74528;SDS011;63009;52.584;5.932;2023-06-26T14:24:37;5.87;;;1.37;;
74528;SDS011;63009;52.584;5.932;2023-06-26T14:27:03;7.32;;;1.42;;
74528;SDS011;63009;52.584;5.932;2023-06-26T14:29:29;5.72;;;1.40;;
74528;SDS011;63009;52.584;5.932;2023-06-26T14:31:54;9.35;;;1.55;;
74528;SDS011;63009;52.584;5.932;2023-06-26T14:34:20;4.43;;;1.20;;
74528;SDS011;63009;52.584;5.932;2023-06-26T14:36:45;5.97;;;1.47;;
74528;SDS011;63009;52.584;5.932;2023-06-26T14:39:10;8.75;;;1.50;;
74528;SDS011;63009;52.584;5.932;2023-06-26T14:41:35;7.77;;;1.93;;
74528;SDS011;63009;52.584;5.932;2023-06-26T14:44:01;4.20;;;1.50;;
74528;SDS011;63009;52.584;5.932;2023-06-26T14:46:26;4.93;;;1.38;;
74528;SDS011;63009;52.584;5.932;2023-06-26T14:48:51;5.47;;;1.33;;
74528;SDS011;63009;52.584;5.932;2023-06-26T14:51:16;9.13;;;1.77;;
74528;SDS011;63009;52.584;5.932;2023-06-26T14:53:42;5.68;;;1.33;;
74528;SDS011;63009;52.584;5.932;2023-06-26T14:56:07;10.33;;;2.00;;